Time;durP1;ratioP1;P1;durP2;ratioP2;P2;SDS_P1;SDS_P2;PMS_P1;PMS_P2;Temp;Humidity;BMP_temperature;BMP_pressure;BME280_temperature;BME280_humidity;BME280_pressure;Samples;Min_cycle;Max_cycle;Signal;HPM_P1;HPM_P2
2024/02/22 00:01:10;;;;;;;0.50;0.20;;;10.00;99.90;;;;;;6303851;22;20392;-85
2024/02/22 00:03:36;;;;;;;0.60;0.30;;;10.00;99.90;;;;;;6277902;22;20010;-84
2024/02/22 00:06:02;;;;;;;1.30;0.30;;;10.00;99.90;;;;;;6305923;22;20078;-85
2024/02/22 00:08:27;;;;;;;0.70;0.30;;;10.00;99.90;;;;;;6303437;22;20030;-85
2024/02/22 00:10:54;;;;;;;0.70;0.38;;;10.00;99.90;;;;;;6304288;22;20014;-85
2024/02/22 00:13:20;;;;;;;0.50;0.25;;;10.00;99.90;;;;;;6304672;22;20003;-85
2024/02/22 00:15:45;;;;;;;0.85;0.40;;;10.00;99.90;;;;;;6304292;22;20426;-85
2024/02/22 00:18:11;;;;;;;0.93;0.40;;;10.10;99.90;;;;;;6304447;22;19995;-85
2024/02/22 00:20:37;;;;;;;0.82;0.40;;;10.10;99.90;;;;;;6305544;22;20007;-86
2024/02/22 00:23:05;;;;;;;1.00;0.40;;;10.10;99.90;;;;;;6304036;22;20023;-85
2024/02/22 00:25:32;;;;;;;1.70;0.30;;;10.10;99.90;;;;;;6304473;22;20038;-87
2024/02/22 00:27:58;;;;;;;0.60;0.30;;;10.10;99.90;;;;;;6277633;22;20007;-86
2024/02/22 00:30:25;;;;;;;0.70;0.30;;;10.10;99.90;;;;;;6303058;22;20513;-85
2024/02/22 00:32:51;;;;;;;0.70;0.50;;;10.10;99.90;;;;;;6277608;22;20003;-87
2024/02/22 00:35:17;;;;;;;1.63;0.80;;;10.10;99.90;;;;;;6303506;22;20008;-85
2024/02/22 00:37:42;;;;;;;1.27;0.40;;;10.30;99.90;;;;;;6305456;22;20367;-85
2024/02/22 00:40:09;;;;;;;0.70;0.30;;;10.20;99.90;;;;;;6278083;22;20021;-85
2024/02/22 00:42:35;;;;;;;0.65;0.30;;;10.30;99.90;;;;;;6303371;22;20014;-82
2024/02/22 00:45:03;;;;;;;0.85;0.40;;;10.30;99.90;;;;;;6304939;22;20515;-86
2024/02/22 00:47:29;;;;;;;0.70;0.30;;;10.30;99.90;;;;;;6303021;22;20030;-85
2024/02/22 00:49:54;;;;;;;0.88;0.40;;;10.40;99.90;;;;;;6303476;22;20007;-85
2024/02/22 00:52:20;;;;;;;1.00;0.50;;;10.40;99.90;;;;;;6303934;22;20035;-85
2024/02/22 00:54:45;;;;;;;0.70;0.50;;;10.40;99.90;;;;;;6304169;22;20010;-85
2024/02/22 00:57:11;;;;;;;1.70;0.60;;;10.50;99.90;;;;;;6303531;22;20023;-86
2024/02/22 00:59:37;;;;;;;1.25;0.50;;;10.40;99.90;;;;;;6303832;22;20084;-85
2024/02/22 01:02:02;;;;;;;0.80;0.40;;;10.50;99.90;;;;;;6304042;22;20086;-85
2024/02/22 01:04:28;;;;;;;1.20;0.50;;;10.60;99.90;;;;;;6305133;22;20332;-85
2024/02/22 01:06:55;;;;;;;0.70;0.38;;;10.50;99.90;;;;;;6303768;22;20011;-85
2024/02/22 01:09:21;;;;;;;0.63;0.28;;;10.60;99.90;;;;;;6277533;22;19999;-85
2024/02/22 01:11:47;;;;;;;1.48;0.43;;;10.60;99.90;;;;;;6274300;22;20057;-85
2024/02/22 01:14:15;;;;;;;0.60;0.30;;;10.60;99.90;;;;;;6303715;22;20486;-85
2024/02/22 01:16:40;;;;;;;0.73;0.35;;;10.60;99.90;;;;;;6303023;22;20018;-85
2024/02/22 01:19:06;;;;;;;0.88;0.43;;;10.60;99.90;;;;;;6277472;22;20003;-85
2024/02/22 01:21:32;;;;;;;1.00;0.40;;;10.70;99.90;;;;;;6302509;22;20015;-85
2024/02/22 01:23:57;;;;;;;0.70;0.40;;;10.70;99.90;;;;;;6303257;22;20003;-86
2024/02/22 01:26:23;;;;;;;1.40;0.77;;;10.70;99.90;;;;;;6277231;22;20007;-84
2024/02/22 01:28:49;;;;;;;1.17;0.50;;;10.80;99.90;;;;;;6278069;22;20010;-85
2024/02/22 01:31:15;;;;;;;0.80;0.50;;;10.80;99.90;;;;;;6329845;22;20048;-85
2024/02/22 01:33:43;;;;;;;0.82;0.40;;;10.70;99.90;;;;;;6278039;22;20030;-85
2024/02/22 01:36:10;;;;;;;0.65;0.40;;;10.80;99.90;;;;;;6305055;22;20006;-85
2024/02/22 01:38:35;;;;;;;0.93;0.50;;;10.80;99.90;;;;;;6276974;22;20087;-86
2024/02/22 01:41:02;;;;;;;0.85;0.40;;;10.80;99.90;;;;;;6303430;22;20459;-86
2024/02/22 01:43:28;;;;;;;1.10;0.50;;;10.80;99.90;;;;;;6302681;22;19996;-85
2024/02/22 01:45:54;;;;;;;0.80;0.40;;;10.80;99.90;;;;;;6277264;22;20038;-85
2024/02/22 01:48:20;;;;;;;0.90;0.40;;;10.80;99.90;;;;;;6302500;22;20060;-85
2024/02/22 01:50:52;;;;;;;0.70;0.32;;;10.80;99.90;;;;;;6303464;22;20019;-85
2024/02/22 01:53:19;;;;;;;0.80;0.40;;;10.90;99.90;;;;;;6302480;22;20141;-85
2024/02/22 01:55:45;;;;;;;0.77;0.40;;;10.90;99.90;;;;;;6277409;22;20007;-85
2024/02/22 01:58:12;;;;;;;0.85;0.35;;;10.90;99.90;;;;;;6304500;22;20068;-86
2024/02/22 02:00:41;;;;;;;0.70;0.30;;;10.90;99.90;;;;;;6277699;22;20087;-85
2024/02/22 02:03:07;;;;;;;1.10;0.43;;;10.90;99.90;;;;;;6277143;22;20011;-85
2024/02/22 02:05:32;;;;;;;0.70;0.30;;;10.90;99.90;;;;;;6277253;22;20222;-85
2024/02/22 02:08:01;;;;;;;1.05;0.50;;;10.90;99.90;;;;;;6302965;22;20003;-87
2024/02/22 02:10:27;;;;;;;0.80;0.40;;;10.90;99.90;;;;;;6304166;22;20007;-84
2024/02/22 02:13:00;;;;;;;0.65;0.40;;;10.90;99.90;;;;;;6304207;22;20094;-85
2024/02/22 02:15:25;;;;;;;0.75;0.40;;;10.90;99.90;;;;;;6276789;22;20554;-86
2024/02/22 02:17:51;;;;;;;0.82;0.40;;;10.90;99.90;;;;;;6276575;22;20026;-85
2024/02/22 02:20:18;;;;;;;1.05;0.65;;;10.90;99.90;;;;;;6302663;22;20015;-85
2024/02/22 02:23:15;;;;;;;1.33;0.50;;;11.00;99.90;;;;;;6302846;22;20003;-84
2024/02/22 02:25:41;;;;;;;1.08;0.55;;;11.00;99.90;;;;;;6303381;22;20030;-85
2024/02/22 02:28:07;;;;;;;0.70;0.40;;;11.00;99.90;;;;;;6303509;22;20479;-86
2024/02/22 02:30:33;;;;;;;0.88;0.45;;;11.00;99.90;;;;;;6276917;22;20455;-85
2024/02/22 02:32:58;;;;;;;1.10;0.50;;;11.00;99.90;;;;;;6302742;22;20497;-85
2024/02/22 02:35:24;;;;;;;1.45;0.80;;;11.10;99.90;;;;;;6303106;22;20011;-85
2024/02/22 02:37:49;;;;;;;1.20;0.68;;;11.10;99.90;;;;;;6276864;22;19992;-84
2024/02/22 02:40:15;;;;;;;1.10;0.50;;;11.10;99.90;;;;;;6303964;22;20023;-85
2024/02/22 02:42:41;;;;;;;1.17;0.68;;;11.10;99.90;;;;;;6277107;22;20038;-84
2024/02/22 02:45:07;;;;;;;1.13;0.60;;;11.10;99.90;;;;;;6303514;22;20085;-85
2024/02/22 02:47:34;;;;;;;1.33;0.80;;;11.20;99.90;;;;;;6302545;22;20003;-84
2024/02/22 02:50:00;;;;;;;3.25;1.00;;;11.20;99.90;;;;;;6303560;22;20058;-84
2024/02/22 02:52:25;;;;;;;1.45;0.80;;;11.20;99.90;;;;;;6302829;22;20003;-84
2024/02/22 02:54:51;;;;;;;1.10;0.60;;;11.20;99.90;;;;;;6277290;22;20011;-85
2024/02/22 02:57:18;;;;;;;1.10;0.52;;;11.20;99.90;;;;;;6302746;22;20011;-84
2024/02/22 02:59:44;;;;;;;1.30;0.60;;;11.20;99.90;;;;;;6303413;22;20003;-85
2024/02/22 03:02:10;;;;;;;1.55;0.80;;;11.30;99.90;;;;;;6277084;22;20003;-84
2024/02/22 03:04:36;;;;;;;2.00;0.90;;;11.30;99.90;;;;;;6303124;22;20007;-84
2024/02/22 03:07:02;;;;;;;2.33;1.33;;;11.30;99.90;;;;;;6303013;22;20435;-85
2024/02/22 03:09:27;;;;;;;2.20;1.58;;;11.30;99.90;;;;;;6303857;22;20006;-84
2024/02/22 03:11:53;;;;;;;1.95;1.23;;;11.30;99.90;;;;;;6329121;22;20026;-82
2024/02/22 03:14:18;;;;;;;2.05;0.90;;;11.30;99.90;;;;;;6302711;22;20351;-84
2024/02/22 03:16:44;;;;;;;4.20;2.28;;;11.30;99.90;;;;;;6302908;22;20015;-84
2024/02/22 03:19:10;;;;;;;2.85;1.50;;;11.40;99.90;;;;;;6303604;22;20019;-84
2024/02/22 03:21:37;;;;;;;2.40;1.65;;;11.40;99.90;;;;;;6278719;22;20022;-85
2024/02/22 03:24:03;;;;;;;2.90;2.15;;;11.40;99.90;;;;;;6279229;22;20018;-84
2024/02/22 03:26:30;;;;;;;2.25;1.27;;;11.40;99.90;;;;;;6278685;22;20003;-84
2024/02/22 03:28:55;;;;;;;2.65;2.15;;;11.40;99.90;;;;;;6306379;22;20007;-86
2024/02/22 03:31:22;;;;;;;1.90;1.15;;;11.40;99.90;;;;;;6279224;22;20007;-84
2024/02/22 03:33:48;;;;;;;2.60;2.30;;;11.40;99.90;;;;;;6305243;22;20086;-85
2024/02/22 03:36:14;;;;;;;3.03;2.60;;;11.40;99.90;;;;;;6304868;22;20096;-85
2024/02/22 03:38:39;;;;;;;2.90;2.22;;;11.40;99.90;;;;;;6278495;22;20010;-84
2024/02/22 03:41:05;;;;;;;2.67;1.90;;;11.40;99.90;;;;;;6305036;22;20038;-84
2024/02/22 03:43:31;;;;;;;2.63;2.25;;;11.40;99.90;;;;;;6279133;22;20011;-85
2024/02/22 03:45:57;;;;;;;2.85;2.13;;;11.40;99.90;;;;;;6306417;22;20030;-83
2024/02/22 03:48:23;;;;;;;2.78;2.10;;;11.40;99.90;;;;;;6278067;22;20460;-85
2024/02/22 03:50:49;;;;;;;2.75;1.92;;;11.40;99.90;;;;;;6304200;22;20310;-85
2024/02/22 03:53:15;;;;;;;2.92;1.80;;;11.40;99.90;;;;;;6304081;22;20007;-84
2024/02/22 03:55:41;;;;;;;2.40;1.25;;;11.40;99.90;;;;;;6304960;22;20062;-84
2024/02/22 03:58:07;;;;;;;3.13;1.15;;;11.40;99.90;;;;;;6303968;22;20343;-85
2024/02/22 04:00:36;;;;;;;2.50;1.15;;;11.40;99.90;;;;;;6303759;22;20011;-84
2024/02/22 04:03:02;;;;;;;2.25;1.35;;;11.40;99.90;;;;;;6305821;22;20003;-84
2024/02/22 04:05:28;;;;;;;2.45;1.00;;;11.40;99.90;;;;;;6278188;22;20085;-84
2024/02/22 04:07:54;;;;;;;2.35;1.35;;;11.40;99.90;;;;;;6278428;22;20007;-84
2024/02/22 04:10:20;;;;;;;2.28;1.30;;;11.40;99.90;;;;;;6303864;22;20014;-84
2024/02/22 04:12:47;;;;;;;2.03;0.88;;;11.40;99.90;;;;;;6279057;22;20019;-84
2024/02/22 04:15:13;;;;;;;3.20;0.80;;;11.40;99.90;;;;;;6304285;22;20004;-84
2024/02/22 04:17:39;;;;;;;2.72;0.77;;;11.40;99.90;;;;;;6305726;22;20004;-84
2024/02/22 04:20:08;;;;;;;1.83;0.90;;;11.40;99.90;;;;;;6304073;22;20349;-84
2024/02/22 04:22:46;;;;;;;1.50;0.70;;;11.40;99.90;;;;;;6278194;22;20014;-84
2024/02/22 04:25:12;;;;;;;2.83;0.85;;;11.30;99.90;;;;;;6304099;22;20030;-84
2024/02/22 04:27:38;;;;;;;2.50;0.73;;;11.30;99.90;;;;;;6277953;22;20014;-84
2024/02/22 04:30:04;;;;;;;1.23;0.60;;;11.30;99.90;;;;;;6303449;22;20411;-84
2024/02/22 04:32:30;;;;;;;1.67;0.68;;;11.30;99.90;;;;;;6304355;22;20470;-84
2024/02/22 04:34:55;;;;;;;2.53;1.02;;;11.30;99.90;;;;;;6305455;22;20443;-85
2024/02/22 04:37:21;;;;;;;1.98;0.80;;;11.30;99.90;;;;;;6329955;22;19996;-84
2024/02/22 04:39:47;;;;;;;2.60;0.95;;;11.30;99.90;;;;;;6277745;22;20019;-84
2024/02/22 04:42:12;;;;;;;4.25;1.98;;;11.30;99.90;;;;;;6278292;22;20084;-85
2024/02/22 04:44:38;;;;;;;4.25;2.13;;;11.30;99.90;;;;;;6278733;22;20094;-83
2024/02/22 04:47:05;;;;;;;4.20;1.98;;;11.30;99.90;;;;;;6278557;22;20344;-84
2024/02/22 04:49:30;;;;;;;4.68;1.88;;;11.20;99.90;;;;;;6305221;22;20007;-84
2024/02/22 04:51:56;;;;;;;2.72;1.42;;;11.30;99.90;;;;;;6278146;22;20007;-84
2024/02/22 04:54:22;;;;;;;4.10;1.95;;;11.30;99.90;;;;;;6277973;22;20068;-84
2024/02/22 04:56:47;;;;;;;3.90;1.92;;;11.30;99.90;;;;;;6278655;22;20012;-85
2024/02/22 04:59:13;;;;;;;2.85;1.45;;;11.30;99.90;;;;;;6304995;22;20007;-84
2024/02/22 05:01:39;;;;;;;3.15;1.30;;;11.20;99.90;;;;;;6278431;22;20045;-84
2024/02/22 05:04:05;;;;;;;2.65;1.25;;;11.20;99.90;;;;;;6278164;22;20008;-84
2024/02/22 05:06:30;;;;;;;5.05;1.83;;;11.20;99.90;;;;;;6278106;22;20098;-84
2024/02/22 05:08:56;;;;;;;5.55;2.65;;;11.20;99.90;;;;;;6304095;22;20331;-84
2024/02/22 05:11:22;;;;;;;5.45;2.40;;;11.20;99.90;;;;;;6303007;22;20018;-85
2024/02/22 05:13:50;;;;;;;6.60;2.47;;;11.20;99.90;;;;;;6303741;22;20014;-85
2024/02/22 05:16:15;;;;;;;6.40;2.30;;;11.20;99.90;;;;;;6303389;22;20007;-84
2024/02/22 05:18:41;;;;;;;3.72;1.80;;;11.20;99.90;;;;;;6277251;22;20078;-83
2024/02/22 05:21:07;;;;;;;8.10;3.70;;;11.10;99.90;;;;;;6303439;22;20011;-85
2024/02/22 05:23:33;;;;;;;6.10;3.10;;;11.10;99.90;;;;;;6303381;22;20011;-83
2024/02/22 05:25:59;;;;;;;7.20;3.33;;;11.10;99.90;;;;;;6277627;22;20335;-85
2024/02/22 05:28:25;;;;;;;7.28;4.45;;;11.10;99.90;;;;;;6303722;22;20078;-84
2024/02/22 05:30:51;;;;;;;7.28;4.60;;;11.10;99.90;;;;;;6277674;22;20035;-84
2024/02/22 05:33:16;;;;;;;5.32;3.20;;;11.00;99.90;;;;;;6303241;22;20056;-84
2024/02/22 05:35:42;;;;;;;7.88;3.85;;;11.00;99.90;;;;;;6303622;22;20514;-85
2024/02/22 05:38:08;;;;;;;8.85;3.80;;;11.00;99.90;;;;;;6277465;22;20003;-84
2024/02/22 05:40:33;;;;;;;7.43;3.70;;;10.90;99.90;;;;;;6302873;22;20060;-84
2024/02/22 05:42:59;;;;;;;6.32;2.47;;;10.90;99.90;;;;;;6303209;22;19995;-82
2024/02/22 05:45:43;;;;;;;4.13;1.70;;;10.90;99.90;;;;;;6304022;22;19999;-84
2024/02/22 05:48:09;;;;;;;4.32;1.85;;;10.90;99.90;;;;;;6302773;22;20022;-84
2024/02/22 05:50:35;;;;;;;7.50;2.83;;;10.90;99.90;;;;;;6277230;22;20010;-83
2024/02/22 05:53:01;;;;;;;6.80;3.05;;;10.90;99.90;;;;;;6304864;22;20003;-84
2024/02/22 05:55:27;;;;;;;12.35;5.68;;;10.80;99.90;;;;;;6303446;22;20102;-84
2024/02/22 05:57:54;;;;;;;9.65;4.00;;;10.90;99.90;;;;;;6303223;22;20493;-84
2024/02/22 06:00:19;;;;;;;6.63;3.13;;;10.90;99.90;;;;;;6276584;22;20022;-84
2024/02/22 06:02:45;;;;;;;6.20;2.92;;;10.80;99.90;;;;;;6276785;22;20012;-84
2024/02/22 06:05:11;;;;;;;6.63;2.05;;;10.70;99.90;;;;;;6301977;22;20003;-84
2024/02/22 06:07:36;;;;;;;7.15;3.20;;;10.70;99.90;;;;;;6302568;22;20052;-85
2024/02/22 06:10:02;;;;;;;8.35;3.67;;;10.70;99.90;;;;;;6304667;22;20010;-84
2024/02/22 06:12:29;;;;;;;5.80;3.35;;;10.70;99.90;;;;;;6302432;22;20023;-84
2024/02/22 06:14:55;;;;;;;7.55;3.25;;;10.60;99.90;;;;;;6302986;22;20504;-84
2024/02/22 06:17:21;;;;;;;7.18;3.22;;;10.60;99.90;;;;;;6301911;22;20431;-84
2024/02/22 06:19:48;;;;;;;7.75;3.30;;;10.60;99.90;;;;;;6276776;22;20374;-84
2024/02/22 06:22:13;;;;;;;7.00;3.55;;;10.60;99.90;;;;;;6302616;22;20018;-83
2024/02/22 06:24:39;;;;;;;6.85;3.95;;;10.60;99.90;;;;;;6302888;22;20082;-83
2024/02/22 06:27:05;;;;;;;6.15;2.88;;;10.60;99.90;;;;;;6276597;22;20431;-84
2024/02/22 06:29:30;;;;;;;5.57;3.17;;;10.60;99.90;;;;;;6301819;22;20007;-84
2024/02/22 06:31:56;;;;;;;11.27;4.00;;;10.60;99.90;;;;;;6302896;22;20006;-84
2024/02/22 06:34:22;;;;;;;7.50;3.85;;;10.60;99.90;;;;;;6302530;22;20056;-84
2024/02/22 06:36:47;;;;;;;8.63;3.50;;;10.60;99.90;;;;;;6302699;22;20086;-84
2024/02/22 06:39:13;;;;;;;4.90;2.53;;;10.60;99.90;;;;;;6328066;22;20272;-84
2024/02/22 06:41:38;;;;;;;6.43;2.47;;;10.60;99.90;;;;;;6302094;22;20435;-85
2024/02/22 06:44:04;;;;;;;4.57;2.42;;;10.50;99.90;;;;;;6301880;22;20003;-84
2024/02/22 06:46:30;;;;;;;6.72;2.75;;;10.50;99.90;;;;;;6303121;22;20385;-84
2024/02/22 06:48:55;;;;;;;5.35;2.42;;;10.40;99.90;;;;;;6276322;22;20435;-84
2024/02/22 06:51:24;;;;;;;5.60;2.33;;;10.30;99.90;;;;;;6274781;22;20007;-87
2024/02/22 06:53:50;;;;;;;3.08;1.77;;;10.30;99.90;;;;;;6301722;22;20526;-86
2024/02/22 06:56:16;;;;;;;5.93;2.85;;;10.30;99.90;;;;;;6275834;22;20003;-85
2024/02/22 06:58:41;;;;;;;5.57;2.65;;;10.30;99.90;;;;;;6303166;22;20361;-85
2024/02/22 07:01:07;;;;;;;5.47;2.13;;;10.30;99.90;;;;;;6301920;22;20011;-85
2024/02/22 07:03:32;;;;;;;4.90;2.35;;;10.30;99.90;;;;;;6301089;22;20041;-84
2024/02/22 07:05:59;;;;;;;3.67;1.73;;;10.30;99.90;;;;;;6276024;22;20041;-85
2024/02/22 07:08:25;;;;;;;5.63;2.35;;;10.30;99.90;;;;;;6275362;22;20363;-85
2024/02/22 07:10:51;;;;;;;2.92;1.65;;;10.40;99.90;;;;;;6301851;22;20083;-85
2024/02/22 07:13:16;;;;;;;5.28;2.83;;;10.40;99.90;;;;;;6300581;22;20003;-86
2024/02/22 07:15:42;;;;;;;3.67;2.45;;;10.40;99.90;;;;;;6275368;22;20004;-86
2024/02/22 07:18:08;;;;;;;6.32;3.15;;;10.50;99.90;;;;;;6301397;22;20029;-86
2024/02/22 07:20:33;;;;;;;4.20;2.33;;;10.50;99.90;;;;;;6301999;22;20017;-86
2024/02/22 07:22:59;;;;;;;3.65;2.88;;;10.50;99.90;;;;;;6274578;22;20566;-85
2024/02/22 07:25:25;;;;;;;3.33;2.10;;;10.50;99.90;;;;;;6300910;22;20000;-85
2024/02/22 07:27:50;;;;;;;4.72;2.72;;;10.60;99.90;;;;;;6274967;22;20056;-85
2024/02/22 07:30:16;;;;;;;3.17;2.08;;;10.60;99.90;;;;;;6275068;22;20010;-86
2024/02/22 07:32:42;;;;;;;5.50;2.30;;;10.60;99.90;;;;;;6327451;22;19999;-85
2024/02/22 07:35:08;;;;;;;5.40;4.13;;;10.70;99.90;;;;;;6301661;22;20007;-85
2024/02/22 07:37:34;;;;;;;6.10;3.55;;;10.60;99.90;;;;;;6274909;22;20015;-85
2024/02/22 07:40:00;;;;;;;3.28;2.38;;;10.60;99.90;;;;;;6275244;22;20065;-85
2024/02/22 07:42:26;;;;;;;3.33;2.35;;;10.70;99.90;;;;;;6302242;22;20014;-84
2024/02/22 07:44:52;;;;;;;4.03;2.13;;;10.70;99.90;;;;;;6275310;22;20007;-85
2024/02/22 07:47:17;;;;;;;5.88;3.35;;;10.70;99.90;;;;;;6275474;22;19995;-85
2024/02/22 07:49:43;;;;;;;5.20;3.42;;;10.80;99.90;;;;;;6275759;22;20004;-85
2024/02/22 07:52:08;;;;;;;4.68;3.67;;;10.80;99.90;;;;;;6300687;22;20068;-85
2024/02/22 07:54:34;;;;;;;4.20;3.05;;;10.80;99.90;;;;;;6301644;22;20081;-85
2024/02/22 07:57:00;;;;;;;3.50;2.70;;;10.80;99.90;;;;;;6327103;22;20363;-84
2024/02/22 07:59:25;;;;;;;3.25;1.88;;;10.70;99.90;;;;;;6301065;22;20090;-85
2024/02/22 08:01:51;;;;;;;3.45;2.40;;;10.70;99.90;;;;;;6275250;22;20016;-85
2024/02/22 08:04:17;;;;;;;3.38;2.33;;;10.70;99.90;;;;;;6301142;22;20412;-84
2024/02/22 08:06:42;;;;;;;3.38;2.08;;;10.70;99.90;;;;;;6276319;22;20355;-85
2024/02/22 08:09:08;;;;;;;3.83;1.92;;;10.70;99.90;;;;;;6277280;22;20014;-86
2024/02/22 08:11:34;;;;;;;4.07;2.10;;;10.70;99.90;;;;;;6276606;22;20015;-85
2024/02/22 08:13:59;;;;;;;3.35;1.55;;;10.70;99.90;;;;;;6304438;22;20003;-85
2024/02/22 08:16:25;;;;;;;2.45;1.30;;;10.70;99.90;;;;;;6301779;22;20039;-85
2024/02/22 08:18:51;;;;;;;3.05;0.90;;;10.70;99.90;;;;;;6303057;22;20086;-84
2024/02/22 08:21:20;;;;;;;2.03;1.25;;;10.80;99.90;;;;;;6276425;22;20018;-85
2024/02/22 08:23:50;;;;;;;2.08;1.10;;;10.80;99.90;;;;;;6302872;22;20320;-86
2024/02/22 08:26:17;;;;;;;2.80;1.40;;;10.80;99.90;;;;;;6302525;22;20011;-85
2024/02/22 08:28:43;;;;;;;2.25;1.10;;;10.80;99.90;;;;;;6303064;22;20038;-85
2024/02/22 08:31:11;;;;;;;1.60;0.77;;;10.90;99.90;;;;;;6303084;22;20061;-85
2024/02/22 08:33:37;;;;;;;1.30;0.70;;;10.90;99.90;;;;;;6277524;22;20061;-85
2024/02/22 08:36:03;;;;;;;1.30;0.70;;;10.90;99.90;;;;;;6302955;22;20007;-85
2024/02/22 08:38:29;;;;;;;2.85;0.90;;;11.00;99.90;;;;;;6276852;22;20069;-85
2024/02/22 08:40:54;;;;;;;2.85;0.70;;;10.90;99.90;;;;;;6328075;22;20747;-84
2024/02/22 08:43:20;;;;;;;2.72;0.73;;;10.90;99.90;;;;;;6276361;22;20011;-85
2024/02/22 08:45:47;;;;;;;1.70;0.70;;;10.90;99.90;;;;;;6303310;22;20003;-86
2024/02/22 08:48:14;;;;;;;1.48;0.50;;;11.00;99.90;;;;;;6276027;22;20335;-85
2024/02/22 08:50:41;;;;;;;2.08;0.60;;;11.00;99.90;;;;;;6276993;22;20017;-85
2024/02/22 08:53:06;;;;;;;1.17;0.50;;;11.00;99.90;;;;;;6302846;22;20010;-85
2024/02/22 08:55:32;;;;;;;2.28;0.95;;;11.10;99.90;;;;;;6276934;22;20015;-84
2024/02/22 08:57:58;;;;;;;2.45;0.70;;;11.00;99.90;;;;;;6301988;22;20394;-85
2024/02/22 09:00:25;;;;;;;1.80;0.98;;;11.10;99.90;;;;;;6302225;22;20080;-86
2024/02/22 09:02:53;;;;;;;1.38;0.77;;;11.10;99.90;;;;;;6302602;22;20014;-86
2024/02/22 09:05:19;;;;;;;1.88;1.15;;;11.10;99.90;;;;;;6276375;22;20007;-86
2024/02/22 09:07:47;;;;;;;1.42;0.70;;;11.20;99.90;;;;;;6303067;22;20462;-86
2024/02/22 09:10:12;;;;;;;1.40;0.80;;;11.20;99.90;;;;;;6301998;22;19999;-87
2024/02/22 09:12:43;;;;;;;1.98;1.15;;;11.20;99.90;;;;;;6302822;22;20098;-85
2024/02/22 09:15:09;;;;;;;1.70;0.98;;;11.10;99.90;;;;;;6303147;22;20003;-86
2024/02/22 09:17:35;;;;;;;3.95;1.80;;;11.20;99.90;;;;;;6276348;22;20011;-85
2024/02/22 09:20:04;;;;;;;2.00;1.42;;;11.20;99.90;;;;;;6302106;22;20412;-86
2024/02/22 09:22:30;;;;;;;1.70;1.27;;;11.20;99.90;;;;;;6301893;22;20087;-86
2024/02/22 09:24:55;;;;;;;1.77;1.02;;;11.20;99.90;;;;;;6302755;22;20146;-86
2024/02/22 09:27:21;;;;;;;1.48;0.90;;;11.20;99.90;;;;;;6275887;22;20197;-86
2024/02/22 09:29:47;;;;;;;1.52;0.90;;;11.30;99.90;;;;;;6304274;22;20007;-86
2024/02/22 09:32:12;;;;;;;1.83;0.90;;;11.40;99.90;;;;;;6301667;22;20010;-86
2024/02/22 09:34:38;;;;;;;1.67;0.80;;;11.40;99.90;;;;;;6275354;22;20007;-87
2024/02/22 09:37:05;;;;;;;1.52;1.05;;;11.50;99.90;;;;;;6275193;22;20177;-86
2024/02/22 09:39:32;;;;;;;1.20;0.70;;;11.70;99.90;;;;;;6300843;22;20052;-87
2024/02/22 09:41:58;;;;;;;1.00;0.50;;;11.60;99.90;;;;;;6275484;22;20022;-87
2024/02/22 09:44:24;;;;;;;0.85;0.40;;;11.70;99.90;;;;;;6301086;22;20011;-87
2024/02/22 09:46:54;;;;;;;1.05;0.50;;;11.70;99.90;;;;;;6301065;22;20452;-87
2024/02/22 09:49:23;;;;;;;1.00;0.50;;;11.60;99.90;;;;;;6300639;22;20030;-86
2024/02/22 09:51:56;;;;;;;0.90;0.40;;;11.70;99.90;;;;;;6275210;22;20011;-87
2024/02/22 09:54:23;;;;;;;0.90;0.45;;;11.70;99.90;;;;;;6300685;22;20450;-90
2024/02/22 09:56:50;;;;;;;1.10;0.40;;;11.70;99.90;;;;;;6301437;22;20520;-88
2024/02/22 09:59:16;;;;;;;0.30;0.20;;;11.70;99.90;;;;;;6275460;22;20416;-87
2024/02/22 10:01:43;;;;;;;1.05;0.30;;;11.70;99.90;;;;;;6302197;22;20313;-88
2024/02/22 10:04:16;;;;;;;0.32;0.20;;;11.90;99.90;;;;;;6274763;22;20006;-88
2024/02/22 10:06:42;;;;;;;1.20;0.22;;;11.80;99.90;;;;;;6300682;22;20064;-88
2024/02/22 10:09:08;;;;;;;0.80;0.40;;;11.60;99.90;;;;;;6301339;22;20287;-88
2024/02/22 10:11:37;;;;;;;1.80;0.52;;;11.60;99.90;;;;;;6275168;22;20011;-87
2024/02/22 10:14:03;;;;;;;0.65;0.40;;;11.60;99.90;;;;;;6302074;22;20064;-88
2024/02/22 10:16:29;;;;;;;0.95;0.45;;;11.70;99.90;;;;;;6301065;22;20007;-87
2024/02/22 10:19:00;;;;;;;0.95;0.60;;;11.80;99.90;;;;;;6274960;22;20007;-89
2024/02/22 10:21:28;;;;;;;1.40;0.80;;;11.70;99.90;;;;;;6274299;22;20213;-86
2024/02/22 10:23:55;;;;;;;0.90;0.50;;;11.70;99.90;;;;;;6301138;22;20074;-88
2024/02/22 10:26:20;;;;;;;0.70;0.40;;;11.70;99.90;;;;;;6274355;22;20094;-87
2024/02/22 10:28:55;;;;;;;0.85;0.30;;;11.60;99.90;;;;;;6326095;22;20023;-87
2024/02/22 10:31:22;;;;;;;1.23;0.50;;;11.50;99.90;;;;;;6273365;22;20011;-86
2024/02/22 10:33:48;;;;;;;1.42;0.65;;;11.50;99.90;;;;;;6274981;22;19999;-85
2024/02/22 10:36:15;;;;;;;1.45;0.68;;;11.50;99.90;;;;;;6273396;22;20007;-87
2024/02/22 10:38:41;;;;;;;0.93;0.57;;;11.40;99.90;;;;;;6274802;22;20351;-87
2024/02/22 10:41:13;;;;;;;0.98;0.60;;;11.50;99.90;;;;;;6300256;22;20015;-88
2024/02/22 10:43:43;;;;;;;1.13;0.70;;;11.50;99.90;;;;;;6300430;22;20396;-87
2024/02/22 10:46:09;;;;;;;1.40;0.60;;;11.50;99.90;;;;;;6300444;22;20431;-90
2024/02/22 10:48:42;;;;;;;1.17;0.50;;;11.50;99.90;;;;;;6300579;22;20032;-86
2024/02/22 10:51:09;;;;;;;1.38;0.50;;;11.60;99.90;;;;;;6275192;22;20039;-87
2024/02/22 10:53:39;;;;;;;0.65;0.30;;;11.70;99.90;;;;;;6301719;22;20056;-88
2024/02/22 10:56:07;;;;;;;0.95;0.45;;;11.70;99.90;;;;;;6274637;22;20030;-87
2024/02/22 10:58:38;;;;;;;0.60;0.40;;;11.50;99.90;;;;;;6274205;22;20015;-85
2024/02/22 11:01:11;;;;;;;1.00;0.40;;;11.50;99.90;;;;;;6300532;22;20694;-87
2024/02/22 11:03:38;;;;;;;0.50;0.30;;;11.50;99.90;;;;;;6274280;22;20004;-87
2024/02/22 11:06:04;;;;;;;0.60;0.30;;;11.50;99.90;;;;;;6274331;22;20080;-87
2024/02/22 11:08:30;;;;;;;0.70;0.35;;;11.50;99.90;;;;;;6300218;22;20314;-87
2024/02/22 11:11:04;;;;;;;0.50;0.30;;;11.50;99.90;;;;;;6299629;22;20080;-86
2024/02/22 11:13:29;;;;;;;0.60;0.40;;;11.60;99.90;;;;;;6299736;22;20010;-83
2024/02/22 11:15:55;;;;;;;1.25;0.35;;;11.60;99.90;;;;;;6298657;22;20007;-85
2024/02/22 11:18:25;;;;;;;0.80;0.30;;;11.70;99.90;;;;;;6297944;22;20491;-87
2024/02/22 11:20:51;;;;;;;0.47;0.20;;;11.80;99.90;;;;;;6272260;22;20022;-85
2024/02/22 11:23:22;;;;;;;0.95;0.20;;;11.70;99.90;;;;;;6297918;22;20340;-86
2024/02/22 11:25:48;;;;;;;0.82;0.20;;;11.70;99.90;;;;;;6299038;22;20030;-86
2024/02/22 11:28:15;;;;;;;0.20;0.10;;;11.70;99.90;;;;;;6297955;22;20439;-84
2024/02/22 11:30:43;;;;;;;0.25;0.10;;;11.80;99.90;;;;;;6298069;22;20008;-87
2024/02/22 11:33:11;;;;;;;0.40;0.13;;;11.80;99.90;;;;;;6298615;22;20503;-85
2024/02/22 11:35:37;;;;;;;0.50;0.20;;;11.80;99.90;;;;;;6272704;22;20010;-85
2024/02/22 11:38:04;;;;;;;0.20;0.10;;;11.80;99.90;;;;;;6298586;22;20027;-83
2024/02/22 11:40:34;;;;;;;0.20;0.10;;;11.80;99.90;;;;;;6298688;22;20423;-86
2024/02/22 11:43:00;;;;;;;;;;;11.80;99.90;;;;;;6300223;22;20018;-84
2024/02/22 11:45:28;;;;;;;0.45;0.20;;;11.90;99.90;;;;;;6273285;22;19926;-86
2024/02/22 11:47:54;;;;;;;0.30;0.10;;;11.90;99.90;;;;;;6299855;22;20438;-86
2024/02/22 11:50:23;;;;;;;0.20;0.10;;;11.90;99.90;;;;;;6300092;22;20078;-86
2024/02/22 11:52:51;;;;;;;0.70;0.20;;;11.80;99.90;;;;;;6299704;22;20091;-86
2024/02/22 11:55:17;;;;;;;1.65;0.10;;;11.80;99.90;;;;;;6273259;22;20009;-85
2024/02/22 11:57:43;;;;;;;0.25;0.10;;;11.90;99.90;;;;;;6301092;22;20023;-86
2024/02/22 12:00:09;;;;;;;0.20;0.10;;;11.80;99.90;;;;;;6299394;22;20007;-85
2024/02/22 12:02:39;;;;;;;0.15;0.10;;;11.90;99.90;;;;;;6274266;22;20094;-87
2024/02/22 12:05:10;;;;;;;0.10;0.10;;;11.80;99.90;;;;;;6299357;22;20011;-86
2024/02/22 12:07:37;;;;;;;0.20;0.10;;;11.80;99.90;;;;;;6293428;22;20011;-86
2024/02/22 12:10:05;;;;;;;0.20;0.10;;;11.80;99.90;;;;;;6299464;22;20025;-87
2024/02/22 12:12:33;;;;;;;0.73;0.20;;;11.80;99.90;;;;;;6243092;22;1353916;-87
2024/02/22 12:15:01;;;;;;;0.20;0.10;;;11.70;99.90;;;;;;6303483;22;20058;-87
2024/02/22 12:17:28;;;;;;;0.63;0.10;;;11.70;99.90;;;;;;6302536;22;20035;-86
2024/02/22 12:19:55;;;;;;;0.22;0.10;;;11.70;99.90;;;;;;6275658;22;20082;-87
2024/02/22 12:22:21;;;;;;;0.73;0.10;;;11.70;99.90;;;;;;6301763;22;20045;-88
2024/02/22 12:24:48;;;;;;;0.40;0.10;;;11.80;99.90;;;;;;6302137;22;20041;-87
2024/02/22 12:27:15;;;;;;;0.40;0.10;;;11.70;99.90;;;;;;6276200;22;20335;-87
2024/02/22 12:29:41;;;;;;;0.45;0.20;;;11.70;99.90;;;;;;6302342;22;20014;-87
2024/02/22 12:32:07;;;;;;;0.40;0.10;;;11.80;99.90;;;;;;6276177;22;20308;-87
2024/02/22 12:34:36;;;;;;;0.30;0.10;;;11.80;99.90;;;;;;6300817;22;20416;-86
2024/02/22 12:37:03;;;;;;;0.30;0.10;;;11.80;99.90;;;;;;6275808;22;20030;-87
2024/02/22 12:39:29;;;;;;;0.25;0.10;;;11.80;99.90;;;;;;6275171;22;20413;-86
2024/02/22 12:41:55;;;;;;;0.90;0.30;;;11.90;99.90;;;;;;6300673;22;20431;-87
2024/02/22 12:44:22;;;;;;;0.50;0.10;;;12.00;99.90;;;;;;6302432;22;20018;-85